This is the latest recevied weather packets stored in our database for station/object YO8SHU-10. If no packets are shown the sender has not sent any weather packets the latest 1 day(s).
| Time | Temp. | Humidity | Pressure | Rain* | Wind** | Luminosity | Snow |
|---|---|---|---|---|---|---|---|
| 1778092242 | 18.89° C | 65% | 1018.7 hPa | - | - | - | - |
| 1778090442 | 19.44° C | 61% | 1018.4 hPa | - | - | - | - |
| 1778088642 | 20.56° C | 56% | 1018.2 hPa | - | - | - | - |
| 1778086842 | 23.33° C | 41% | 1018.1 hPa | - | - | - | - |
| 1778074241 | 28.33° C | 32% | 1018.1 hPa | - | - | - | - |
| 1778072441 | 28.33° C | 34% | 1018.3 hPa | - | - | - | - |
| 1778070641 | 28.33° C | 33% | 1018.2 hPa | - | - | - | - |
| 1778059840 | 25° C | 46% | 1019.8 hPa | - | - | - | - |
| 1778058040 | 23.89° C | 49% | 1020 hPa | - | - | - | - |
| 1778056240 | 24.44° C | 55% | 1019.8 hPa | - | - | - | - |
| 1778054440 | 23.33° C | 60% | 1019.9 hPa | - | - | - | - |
| 1778045439 | 16.11° C | 78% | 1020.1 hPa | - | - | - | - |
| 1778043639 | 16.11° C | 71% | 1020 hPa | - | - | - | - |
| 1778041839 | 17.78° C | 60% | 1019.9 hPa | - | - | - | - |
| 1778040039 | 16.11° C | 68% | 1019.7 hPa | - | - | - | - |
| 1778038239 | 12.78° C | 88% | 1019.5 hPa | - | - | - | - |
| 1778031038 | 8.89° C | 100% | 1019.4 hPa | - | - | - | - |
| 1778027438 | 10° C | 100% | 1019.3 hPa | - | - | - | - |
| 1778023838 | 11.11° C | 100% | 1019.3 hPa | - | - | - | - |
| 1778022038 | 11.67° C | 100% | 1019.5 hPa | - | - | - | - |
| 1778020238 | 12.78° C | 100% | 1019.6 hPa | - | - | - | - |
* Rain since midnight (hover to see other rain measurements)
** Current wind speed in m/s (hover to see current wind gust speed)